createdAt,value
2022-10-03T12:32:39.187Z,1.42
2022-10-03T12:35:40.990Z,1.83
2022-10-03T12:38:48.905Z,1.60
2022-10-03T12:42:03.322Z,1.60
2022-10-03T12:45:02.423Z,1.70
2022-10-03T12:47:57.610Z,1.42
2022-10-03T12:51:01.816Z,1.42
2022-10-03T12:54:26.910Z,1.40
2022-10-03T12:57:38.428Z,1.40
2022-10-03T13:00:24.014Z,1.42
2022-10-03T13:03:07.408Z,1.58
2022-10-03T13:05:39.461Z,1.60
2022-10-03T13:08:38.658Z,1.40
2022-10-03T13:11:19.372Z,1.27
2022-10-03T13:14:24.781Z,1.70
2022-10-03T13:17:14.765Z,1.25
2022-10-03T13:19:59.176Z,1.20
2022-10-03T13:22:40.186Z,1.75
2022-10-03T13:25:24.933Z,1.40
2022-10-03T13:28:16.306Z,1.95
2022-10-03T13:30:54.653Z,1.33
2022-10-03T13:33:30.093Z,1.35
2022-10-03T13:36:18.186Z,1.35
2022-10-03T13:39:03.228Z,1.63
2022-10-03T13:42:01.574Z,1.20
2022-10-03T13:44:55.610Z,1.30
2022-10-03T13:47:48.765Z,1.60
2022-10-03T13:50:49.514Z,1.40
2022-10-03T13:53:53.251Z,1.50
2022-10-03T13:56:47.034Z,2.15
2022-10-03T13:59:43.221Z,1.42
2022-10-03T14:02:44.039Z,1.60
2022-10-03T14:05:34.245Z,1.25
2022-10-03T14:08:14.961Z,1.63
2022-10-03T14:11:27.258Z,1.70
2022-10-03T14:14:46.886Z,1.92
2022-10-03T14:17:42.413Z,1.95
2022-10-03T14:20:37.407Z,1.50
2022-10-03T14:23:18.669Z,2.03
2022-10-03T14:26:05.508Z,1.60
2022-10-03T14:28:49.956Z,1.50
2022-10-03T14:31:36.526Z,1.40
2022-10-03T14:34:21.463Z,1.40
2022-10-03T14:40:06.626Z,1.48
2022-10-03T14:43:20.843Z,1.60
2022-10-03T14:45:57.856Z,1.55
2022-10-03T14:48:45.150Z,1.50
2022-10-03T14:51:22.758Z,1.50
2022-10-03T14:54:17.718Z,1.80
2022-10-03T14:56:52.889Z,1.25
2022-10-03T14:59:33.786Z,1.42
2022-10-03T15:02:37.732Z,2.58
2022-10-03T15:05:17.269Z,1.65
2022-10-03T15:07:50.483Z,2.30
2022-10-03T15:10:26.667Z,1.67
2022-10-03T15:13:09.586Z,1.60
2022-10-03T15:15:43.218Z,1.58
2022-10-03T15:18:18.722Z,1.67
2022-10-03T15:20:57.115Z,1.58
2022-10-03T15:23:46.451Z,1.80
2022-10-03T15:26:23.554Z,1.70
2022-10-03T15:29:02.261Z,1.40
2022-10-03T15:31:36.990Z,1.58
2022-10-03T15:34:25.076Z,3.08
2022-10-03T15:37:07.113Z,1.88
2022-10-03T15:39:42.989Z,2.00
2022-10-03T15:42:25.816Z,1.60
2022-10-03T15:45:02.172Z,1.50
2022-10-03T15:47:39.850Z,1.70
2022-10-03T15:50:25.560Z,1.70
2022-10-03T15:53:17.925Z,1.77
2022-10-03T15:56:02.935Z,1.90
2022-10-03T15:58:37.358Z,2.20
2022-10-03T16:01:24.411Z,1.77
2022-10-03T16:03:59.072Z,1.73
2022-10-03T16:09:37.184Z,2.03
2022-10-03T16:12:41.699Z,2.22
2022-10-03T16:15:21.901Z,1.80
2022-10-03T16:18:02.295Z,1.85
2022-10-03T16:21:08.248Z,1.80
2022-10-03T16:23:44.526Z,1.90
2022-10-03T16:26:30.875Z,2.28
2022-10-03T16:29:12.998Z,1.80
2022-10-03T16:31:55.781Z,1.85
2022-10-03T16:34:31.101Z,1.80
2022-10-03T16:37:14.962Z,1.73
2022-10-03T16:39:54.480Z,2.08
2022-10-03T16:42:31.665Z,1.90
2022-10-03T16:45:08.417Z,2.20
2022-10-03T16:47:41.074Z,2.15
2022-10-03T16:50:25.564Z,2.30
2022-10-03T16:52:59.443Z,1.90
2022-10-03T16:55:46.645Z,2.00
2022-10-03T16:58:26.031Z,2.10
2022-10-03T17:01:26.398Z,1.80
2022-10-03T17:04:17.016Z,2.45
2022-10-03T17:06:51.284Z,2.00
2022-10-03T17:09:46.387Z,2.00
2022-10-03T17:12:39.040Z,2.10
2022-10-03T17:15:26.753Z,2.53
2022-10-03T17:18:11.505Z,2.38
2022-10-03T17:20:50.277Z,2.10
2022-10-03T17:23:33.991Z,2.22
2022-10-03T17:26:14.510Z,2.00
2022-10-03T17:28:55.926Z,2.10
2022-10-03T17:31:44.314Z,1.73
2022-10-03T17:34:29.066Z,1.90
2022-10-03T17:37:40.429Z,2.20
2022-10-03T17:40:22.342Z,2.10
2022-10-03T17:43:02.935Z,2.08
2022-10-03T17:45:59.767Z,2.03
2022-10-03T17:49:00.409Z,2.30
2022-10-03T17:51:39.859Z,2.15
2022-10-03T17:54:19.052Z,2.35
2022-10-03T17:56:57.249Z,2.97
2022-10-03T17:59:38.688Z,3.53
2022-10-03T18:02:24.390Z,3.15
2022-10-03T18:05:07.314Z,2.45
2022-10-03T18:07:43.335Z,2.15
2022-10-03T18:10:19.938Z,2.20
2022-10-03T18:13:00.138Z,2.70
2022-10-03T18:16:01.070Z,2.50
2022-10-03T18:19:03.593Z,2.10
2022-10-03T18:22:02.560Z,2.45
2022-10-03T18:25:27.313Z,2.20
2022-10-03T18:28:12.835Z,2.20
2022-10-03T18:31:00.264Z,2.20
2022-10-03T18:33:40.008Z,2.10
2022-10-03T18:36:19.165Z,2.40
2022-10-03T18:38:54.561Z,2.20
2022-10-03T18:41:29.375Z,2.40
2022-10-03T18:44:01.690Z,2.58
2022-10-03T18:46:41.159Z,2.80
2022-10-03T18:49:34.438Z,4.22
2022-10-03T18:52:19.403Z,3.60
2022-10-03T18:54:58.158Z,2.67
2022-10-03T18:57:32.926Z,2.45
2022-10-03T19:03:07.830Z,2.00
2022-10-03T19:05:48.622Z,2.35
2022-10-03T19:08:29.695Z,2.53
2022-10-03T19:11:22.556Z,2.08
2022-10-03T19:13:58.994Z,2.05
2022-10-03T19:17:04.336Z,2.20
2022-10-03T19:20:12.271Z,2.08
2022-10-03T19:23:00.361Z,2.15
2022-10-03T19:25:37.332Z,2.05
2022-10-03T19:28:28.714Z,1.88
2022-10-03T19:31:16.687Z,2.28
2022-10-03T19:33:58.230Z,2.55
2022-10-03T19:36:37.783Z,2.10
2022-10-03T19:39:15.702Z,2.75
2022-10-03T19:41:54.481Z,3.00
2022-10-03T19:44:27.803Z,1.92
2022-10-03T19:47:25.858Z,2.10
2022-10-03T19:50:15.900Z,2.47
2022-10-03T19:52:51.914Z,3.63
2022-10-03T19:55:33.370Z,2.72
2022-10-03T19:58:08.403Z,2.17
2022-10-03T20:00:54.403Z,2.00
2022-10-03T20:03:31.889Z,2.75
2022-10-03T20:06:15.423Z,1.83
2022-10-03T20:09:04.032Z,2.00
2022-10-03T20:11:46.595Z,2.22
2022-10-03T20:14:26.919Z,2.35
2022-10-03T20:17:03.027Z,2.33
2022-10-03T20:19:37.497Z,1.95
2022-10-03T20:22:14.333Z,2.50
2022-10-03T20:24:46.202Z,1.75
2022-10-03T20:27:27.075Z,1.85
2022-10-03T20:30:07.703Z,2.50
2022-10-03T20:32:44.509Z,1.77
2022-10-03T20:35:36.849Z,1.80
2022-10-03T20:38:30.175Z,3.08
2022-10-03T20:41:19.795Z,2.22
2022-10-03T20:44:09.120Z,2.17
2022-10-03T20:46:53.736Z,2.03
2022-10-03T20:49:33.091Z,1.73
2022-10-03T20:52:16.920Z,2.15
2022-10-03T20:55:03.128Z,1.98
2022-10-03T20:57:58.357Z,2.38
2022-10-03T21:00:31.207Z,1.90
2022-10-03T21:03:26.382Z,1.85
2022-10-03T21:05:59.893Z,1.70
2022-10-03T21:08:40.835Z,1.80
2022-10-03T21:11:23.220Z,1.60
2022-10-03T21:14:25.786Z,1.80
2022-10-03T21:16:59.460Z,1.70
2022-10-03T21:19:42.880Z,1.67
2022-10-03T21:22:21.828Z,1.73
2022-10-03T21:24:59.721Z,1.60
2022-10-03T21:27:33.355Z,1.70
2022-10-03T21:30:17.729Z,1.92
2022-10-03T21:33:11.633Z,1.50
2022-10-03T21:35:44.255Z,1.90
2022-10-03T21:38:26.810Z,1.75
2022-10-03T21:41:20.010Z,2.75
2022-10-03T21:43:53.631Z,1.70
2022-10-03T21:46:34.631Z,1.98
2022-10-03T21:49:31.512Z,2.08
2022-10-03T21:52:18.212Z,2.30
2022-10-03T21:55:45.358Z,1.98
2022-10-03T21:58:49.816Z,1.90
2022-10-03T22:01:42.646Z,1.73
2022-10-03T22:04:20.469Z,1.70
2022-10-03T22:07:02.977Z,1.88
2022-10-03T22:09:36.514Z,1.85
2022-10-03T22:12:10.585Z,2.45
2022-10-03T22:14:45.979Z,2.30
2022-10-03T22:17:39.645Z,2.35
2022-10-03T22:20:32.694Z,2.60
2022-10-03T22:23:44.531Z,2.30
2022-10-03T22:26:24.273Z,2.00
2022-10-03T22:29:27.340Z,2.13
2022-10-03T22:32:13.050Z,2.25
2022-10-03T22:35:05.087Z,1.98
2022-10-03T22:37:37.969Z,2.10
2022-10-03T22:40:09.873Z,2.15
2022-10-03T22:42:49.610Z,1.90
2022-10-03T22:45:24.761Z,2.00
2022-10-03T22:48:00.967Z,2.08
2022-10-03T22:50:40.116Z,2.00
2022-10-03T22:53:15.360Z,1.83
2022-10-03T22:55:51.073Z,2.15
2022-10-03T22:58:24.924Z,1.90
2022-10-03T23:00:59.836Z,2.45
2022-10-03T23:03:34.195Z,1.85
2022-10-03T23:06:41.473Z,1.90
2022-10-03T23:09:39.338Z,2.03
2022-10-03T23:12:12.133Z,1.95
2022-10-03T23:14:49.858Z,2.08
2022-10-03T23:17:52.193Z,2.05
2022-10-03T23:20:45.596Z,2.05
2022-10-03T23:23:24.280Z,2.20
2022-10-03T23:25:58.888Z,1.83
2022-10-03T23:29:02.894Z,1.67
2022-10-03T23:31:54.773Z,2.00
2022-10-03T23:34:35.259Z,1.80
2022-10-03T23:37:15.648Z,1.90
2022-10-03T23:39:53.325Z,2.03
2022-10-03T23:42:37.688Z,1.80
2022-10-03T23:45:13.816Z,1.55
2022-10-03T23:47:51.121Z,1.58
2022-10-03T23:50:42.889Z,1.63
2022-10-03T23:53:38.829Z,1.75
2022-10-03T23:56:22.527Z,1.88
2022-10-03T23:59:05.000Z,1.83
